Terminal Aerodrome Forecast
Issued by NWS

Current Version | Previous Version | Graphics & Text | Print | Product List | Glossary Off
Versions: 1 2 3 4 5 6 7 8 9 10 11 12 13 14 15 16 17 18 19 20 21 22 23 24 25

000
FTUS41 KRLX 232000 AAA
TAFCKB
TAF AMD
KCKB 232059Z 2321/2418 28007KT P6SM BKN035
     FM240100 30007KT P6SM SCT035
     FM240600 30005KT P6SM BKN250
     FM241500 27005KT P6SM SCT250=

USA.gov is the U.S. government's official web portal to all federal, state and local government web resources and services.